sensor_id;sensor_type;location;lat;lon;timestamp;P1;P2;P0
63305;PMS5003;50735;52.060;1.248;2022-12-10T00:01:24;52;41;
63305;PMS5003;50735;52.060;1.248;2022-12-10T00:03:52;50;43;
63305;PMS5003;50735;52.060;1.248;2022-12-10T00:06:21;66;48;
63305;PMS5003;50735;52.060;1.248;2022-12-10T00:08:49;52;42;
63305;PMS5003;50735;52.060;1.248;2022-12-10T00:11:16;49;47;
63305;PMS5003;50735;52.060;1.248;2022-12-10T00:13:45;63;51;
63305;PMS5003;50735;52.060;1.248;2022-12-10T00:16:13;55;44;
63305;PMS5003;50735;52.060;1.248;2022-12-10T00:18:42;63;46;
63305;PMS5003;50735;52.060;1.248;2022-12-10T00:21:10;47;36;
63305;PMS5003;50735;52.060;1.248;2022-12-10T00:23:39;57;49;
63305;PMS5003;50735;52.060;1.248;2022-12-10T00:26:08;51;48;
63305;PMS5003;50735;52.060;1.248;2022-12-10T00:28:36;62;56;
63305;PMS5003;50735;52.060;1.248;2022-12-10T00:31:04;52;43;
63305;PMS5003;50735;52.060;1.248;2022-12-10T00:33:34;56;43;
63305;PMS5003;50735;52.060;1.248;2022-12-10T00:36:01;52;43;
63305;PMS5003;50735;52.060;1.248;2022-12-10T00:38:29;53;41;
63305;PMS5003;50735;52.060;1.248;2022-12-10T00:40:57;51;46;
63305;PMS5003;50735;52.060;1.248;2022-12-10T00:43:24;51;42;
63305;PMS5003;50735;52.060;1.248;2022-12-10T00:45:52;59;48;
63305;PMS5003;50735;52.060;1.248;2022-12-10T00:48:19;59;56;
63305;PMS5003;50735;52.060;1.248;2022-12-10T00:50:54;65;51;
63305;PMS5003;50735;52.060;1.248;2022-12-10T00:53:21;55;47;
63305;PMS5003;50735;52.060;1.248;2022-12-10T00:55:48;54;47;
63305;PMS5003;50735;52.060;1.248;2022-12-10T00:58:15;52;46;
63305;PMS5003;50735;52.060;1.248;2022-12-10T01:00:42;50;47;
63305;PMS5003;50735;52.060;1.248;2022-12-10T01:03:09;70;48;
63305;PMS5003;50735;52.060;1.248;2022-12-10T01:05:35;56;43;
63305;PMS5003;50735;52.060;1.248;2022-12-10T01:08:02;56;47;
63305;PMS5003;50735;52.060;1.248;2022-12-10T01:10:29;63;55;
63305;PMS5003;50735;52.060;1.248;2022-12-10T01:12:56;56;43;
63305;PMS5003;50735;52.060;1.248;2022-12-10T01:15:23;56;47;
63305;PMS5003;50735;52.060;1.248;2022-12-10T01:17:50;57;52;
63305;PMS5003;50735;52.060;1.248;2022-12-10T01:20:17;62;56;
63305;PMS5003;50735;52.060;1.248;2022-12-10T01:22:44;55;47;
63305;PMS5003;50735;52.060;1.248;2022-12-10T01:25:11;61;47;
63305;PMS5003;50735;52.060;1.248;2022-12-10T01:27:38;53;49;
63305;PMS5003;50735;52.060;1.248;2022-12-10T01:30:05;62;50;
63305;PMS5003;50735;52.060;1.248;2022-12-10T01:32:33;57;46;
63305;PMS5003;50735;52.060;1.248;2022-12-10T01:35:00;55;48;
63305;PMS5003;50735;52.060;1.248;2022-12-10T01:37:27;63;53;
63305;PMS5003;50735;52.060;1.248;2022-12-10T01:39:54;66;56;
63305;PMS5003;50735;52.060;1.248;2022-12-10T01:42:21;58;50;
63305;PMS5003;50735;52.060;1.248;2022-12-10T01:44:58;64;52;
63305;PMS5003;50735;52.060;1.248;2022-12-10T01:47:28;52;45;
63305;PMS5003;50735;52.060;1.248;2022-12-10T01:49:55;53;44;
63305;PMS5003;50735;52.060;1.248;2022-12-10T01:52:23;62;48;
63305;PMS5003;50735;52.060;1.248;2022-12-10T01:54:51;56;51;
63305;PMS5003;50735;52.060;1.248;2022-12-10T01:57:18;52;46;
63305;PMS5003;50735;52.060;1.248;2022-12-10T01:59:48;62;51;
63305;PMS5003;50735;52.060;1.248;2022-12-10T02:02:19;56;50;
63305;PMS5003;50735;52.060;1.248;2022-12-10T02:04:56;55;49;
63305;PMS5003;50735;52.060;1.248;2022-12-10T02:07:32;56;50;
63305;PMS5003;50735;52.060;1.248;2022-12-10T02:10:07;54;49;
63305;PMS5003;50735;52.060;1.248;2022-12-10T02:12:43;57;50;
63305;PMS5003;50735;52.060;1.248;2022-12-10T02:15:16;55;48;
63305;PMS5003;50735;52.060;1.248;2022-12-10T02:17:46;56;50;
63305;PMS5003;50735;52.060;1.248;2022-12-10T02:20:17;66;51;
63305;PMS5003;50735;52.060;1.248;2022-12-10T02:22:48;66;54;
63305;PMS5003;50735;52.060;1.248;2022-12-10T02:25:18;61;49;
63305;PMS5003;50735;52.060;1.248;2022-12-10T02:27:51;56;46;
63305;PMS5003;50735;52.060;1.248;2022-12-10T02:30:24;56;48;
63305;PMS5003;50735;52.060;1.248;2022-12-10T02:32:51;60;55;
63305;PMS5003;50735;52.060;1.248;2022-12-10T02:35:20;61;48;
63305;PMS5003;50735;52.060;1.248;2022-12-10T02:37:51;56;50;
63305;PMS5003;50735;52.060;1.248;2022-12-10T02:40:22;69;58;
63305;PMS5003;50735;52.060;1.248;2022-12-10T02:42:52;60;51;
63305;PMS5003;50735;52.060;1.248;2022-12-10T02:45:20;50;50;
63305;PMS5003;50735;52.060;1.248;2022-12-10T02:47:49;58;54;
63305;PMS5003;50735;52.060;1.248;2022-12-10T02:50:19;59;49;
63305;PMS5003;50735;52.060;1.248;2022-12-10T02:52:47;59;54;
63305;PMS5003;50735;52.060;1.248;2022-12-10T02:55:14;59;47;
63305;PMS5003;50735;52.060;1.248;2022-12-10T02:57:44;58;51;
63305;PMS5003;50735;52.060;1.248;2022-12-10T03:00:21;54;45;
63305;PMS5003;50735;52.060;1.248;2022-12-10T03:02:54;58;48;
63305;PMS5003;50735;52.060;1.248;2022-12-10T03:05:36;63;51;
63305;PMS5003;50735;52.060;1.248;2022-12-10T03:08:11;60;49;
63305;PMS5003;50735;52.060;1.248;2022-12-10T03:10:42;67;53;
63305;PMS5003;50735;52.060;1.248;2022-12-10T03:13:17;56;51;
63305;PMS5003;50735;52.060;1.248;2022-12-10T03:15:48;56;52;
63305;PMS5003;50735;52.060;1.248;2022-12-10T03:18:17;60;53;
63305;PMS5003;50735;52.060;1.248;2022-12-10T03:20:48;59;48;
63305;PMS5003;50735;52.060;1.248;2022-12-10T03:23:19;64;59;
63305;PMS5003;50735;52.060;1.248;2022-12-10T03:25:46;49;45;
63305;PMS5003;50735;52.060;1.248;2022-12-10T03:28:15;58;45;
63305;PMS5003;50735;52.060;1.248;2022-12-10T03:30:45;61;45;
63305;PMS5003;50735;52.060;1.248;2022-12-10T03:33:14;69;53;
63305;PMS5003;50735;52.060;1.248;2022-12-10T03:35:42;60;54;
63305;PMS5003;50735;52.060;1.248;2022-12-10T03:38:09;60;52;
63305;PMS5003;50735;52.060;1.248;2022-12-10T03:40:37;64;51;
63305;PMS5003;50735;52.060;1.248;2022-12-10T03:43:03;71;55;
63305;PMS5003;50735;52.060;1.248;2022-12-10T03:45:30;69;53;
63305;PMS5003;50735;52.060;1.248;2022-12-10T03:47:57;60;48;
63305;PMS5003;50735;52.060;1.248;2022-12-10T03:50:24;56;44;
63305;PMS5003;50735;52.060;1.248;2022-12-10T03:52:50;67;47;
63305;PMS5003;50735;52.060;1.248;2022-12-10T03:55:17;49;44;
63305;PMS5003;50735;52.060;1.248;2022-12-10T03:57:44;61;46;
63305;PMS5003;50735;52.060;1.248;2022-12-10T04:00:11;69;52;
63305;PMS5003;50735;52.060;1.248;2022-12-10T04:02:38;57;44;
63305;PMS5003;50735;52.060;1.248;2022-12-10T04:05:05;59;47;
63305;PMS5003;50735;52.060;1.248;2022-12-10T04:07:33;64;55;
63305;PMS5003;50735;52.060;1.248;2022-12-10T04:10:00;65;48;
63305;PMS5003;50735;52.060;1.248;2022-12-10T04:12:28;68;57;
63305;PMS5003;50735;52.060;1.248;2022-12-10T04:14:55;48;42;
63305;PMS5003;50735;52.060;1.248;2022-12-10T04:17:22;68;47;
63305;PMS5003;50735;52.060;1.248;2022-12-10T04:19:48;63;50;
63305;PMS5003;50735;52.060;1.248;2022-12-10T04:22:15;78;49;
63305;PMS5003;50735;52.060;1.248;2022-12-10T04:24:42;71;53;
63305;PMS5003;50735;52.060;1.248;2022-12-10T04:27:10;67;48;
63305;PMS5003;50735;52.060;1.248;2022-12-10T04:29:39;55;47;
63305;PMS5003;50735;52.060;1.248;2022-12-10T04:32:06;56;47;
63305;PMS5003;50735;52.060;1.248;2022-12-10T04:34:32;59;46;
63305;PMS5003;50735;52.060;1.248;2022-12-10T04:37:00;59;49;
63305;PMS5003;50735;52.060;1.248;2022-12-10T04:39:29;67;50;
63305;PMS5003;50735;52.060;1.248;2022-12-10T04:41:56;68;57;
63305;PMS5003;50735;52.060;1.248;2022-12-10T04:44:23;70;52;
63305;PMS5003;50735;52.060;1.248;2022-12-10T04:46:49;62;53;
63305;PMS5003;50735;52.060;1.248;2022-12-10T04:49:16;58;42;
63305;PMS5003;50735;52.060;1.248;2022-12-10T04:51:44;63;53;
63305;PMS5003;50735;52.060;1.248;2022-12-10T04:54:11;57;52;
63305;PMS5003;50735;52.060;1.248;2022-12-10T04:56:39;66;53;
63305;PMS5003;50735;52.060;1.248;2022-12-10T04:59:06;51;44;
63305;PMS5003;50735;52.060;1.248;2022-12-10T05:01:35;63;51;
63305;PMS5003;50735;52.060;1.248;2022-12-10T05:04:03;70;51;
63305;PMS5003;50735;52.060;1.248;2022-12-10T05:06:32;63;45;
63305;PMS5003;50735;52.060;1.248;2022-12-10T05:09:00;58;51;
63305;PMS5003;50735;52.060;1.248;2022-12-10T05:11:28;56;50;
63305;PMS5003;50735;52.060;1.248;2022-12-10T05:13:56;67;55;
63305;PMS5003;50735;52.060;1.248;2022-12-10T05:16:25;61;52;
63305;PMS5003;50735;52.060;1.248;2022-12-10T05:18:54;75;52;
63305;PMS5003;50735;52.060;1.248;2022-12-10T05:21:22;63;51;
63305;PMS5003;50735;52.060;1.248;2022-12-10T05:23:51;68;51;
63305;PMS5003;50735;52.060;1.248;2022-12-10T05:26:19;63;48;
63305;PMS5003;50735;52.060;1.248;2022-12-10T05:28:48;55;46;
63305;PMS5003;50735;52.060;1.248;2022-12-10T05:31:18;61;44;
63305;PMS5003;50735;52.060;1.248;2022-12-10T05:33:47;53;47;
63305;PMS5003;50735;52.060;1.248;2022-12-10T05:36:15;59;47;
63305;PMS5003;50735;52.060;1.248;2022-12-10T05:38:45;58;49;
63305;PMS5003;50735;52.060;1.248;2022-12-10T05:41:13;58;49;
63305;PMS5003;50735;52.060;1.248;2022-12-10T05:43:42;56;43;
63305;PMS5003;50735;52.060;1.248;2022-12-10T05:46:11;47;40;
63305;PMS5003;50735;52.060;1.248;2022-12-10T05:48:40;51;39;
63305;PMS5003;50735;52.060;1.248;2022-12-10T05:51:07;52;42;
63305;PMS5003;50735;52.060;1.248;2022-12-10T05:53:36;46;36;
63305;PMS5003;50735;52.060;1.248;2022-12-10T05:56:05;55;45;
63305;PMS5003;50735;52.060;1.248;2022-12-10T05:58:34;52;44;
63305;PMS5003;50735;52.060;1.248;2022-12-10T06:01:06;52;44;
63305;PMS5003;50735;52.060;1.248;2022-12-10T06:03:34;52;39;
63305;PMS5003;50735;52.060;1.248;2022-12-10T06:06:01;53;37;
63305;PMS5003;50735;52.060;1.248;2022-12-10T06:08:27;58;53;
63305;PMS5003;50735;52.060;1.248;2022-12-10T06:10:54;51;39;
63305;PMS5003;50735;52.060;1.248;2022-12-10T06:13:21;56;38;
63305;PMS5003;50735;52.060;1.248;2022-12-10T06:15:48;55;42;
63305;PMS5003;50735;52.060;1.248;2022-12-10T06:18:15;55;41;
63305;PMS5003;50735;52.060;1.248;2022-12-10T06:20:41;51;42;
63305;PMS5003;50735;52.060;1.248;2022-12-10T06:23:09;55;44;
63305;PMS5003;50735;52.060;1.248;2022-12-10T06:25:37;44;41;
63305;PMS5003;50735;52.060;1.248;2022-12-10T06:28:05;45;40;
63305;PMS5003;50735;52.060;1.248;2022-12-10T06:30:32;47;44;
63305;PMS5003;50735;52.060;1.248;2022-12-10T06:32:59;54;39;
63305;PMS5003;50735;52.060;1.248;2022-12-10T06:35:26;46;44;
63305;PMS5003;50735;52.060;1.248;2022-12-10T06:37:53;42;39;
63305;PMS5003;50735;52.060;1.248;2022-12-10T06:40:20;56;47;
63305;PMS5003;50735;52.060;1.248;2022-12-10T06:42:47;45;36;
63305;PMS5003;50735;52.060;1.248;2022-12-10T06:45:16;53;44;
63305;PMS5003;50735;52.060;1.248;2022-12-10T06:47:43;47;41;
63305;PMS5003;50735;52.060;1.248;2022-12-10T06:50:11;57;39;
63305;PMS5003;50735;52.060;1.248;2022-12-10T06:52:38;52;36;
63305;PMS5003;50735;52.060;1.248;2022-12-10T06:55:04;58;45;
63305;PMS5003;50735;52.060;1.248;2022-12-10T06:57:31;51;41;
63305;PMS5003;50735;52.060;1.248;2022-12-10T06:59:58;47;43;
63305;PMS5003;50735;52.060;1.248;2022-12-10T07:02:25;62;43;
63305;PMS5003;50735;52.060;1.248;2022-12-10T07:04:52;56;44;
63305;PMS5003;50735;52.060;1.248;2022-12-10T07:07:18;55;46;
63305;PMS5003;50735;52.060;1.248;2022-12-10T07:09:45;60;46;
63305;PMS5003;50735;52.060;1.248;2022-12-10T07:12:12;50;42;
63305;PMS5003;50735;52.060;1.248;2022-12-10T07:14:39;56;48;
63305;PMS5003;50735;52.060;1.248;2022-12-10T07:17:06;38;36;
63305;PMS5003;50735;52.060;1.248;2022-12-10T07:19:33;48;36;
63305;PMS5003;50735;52.060;1.248;2022-12-10T07:21:59;39;34;
63305;PMS5003;50735;52.060;1.248;2022-12-10T07:24:26;49;38;
63305;PMS5003;50735;52.060;1.248;2022-12-10T07:26:53;45;39;
63305;PMS5003;50735;52.060;1.248;2022-12-10T07:29:20;33;25;
63305;PMS5003;50735;52.060;1.248;2022-12-10T07:31:48;38;30;
63305;PMS5003;50735;52.060;1.248;2022-12-10T07:34:15;38;27;
63305;PMS5003;50735;52.060;1.248;2022-12-10T07:36:42;31;28;
63305;PMS5003;50735;52.060;1.248;2022-12-10T07:39:09;36;30;
63305;PMS5003;50735;52.060;1.248;2022-12-10T07:41:37;39;27;
63305;PMS5003;50735;52.060;1.248;2022-12-10T07:44:04;33;25;
63305;PMS5003;50735;52.060;1.248;2022-12-10T07:46:31;38;37;
63305;PMS5003;50735;52.060;1.248;2022-12-10T07:48:59;45;38;
63305;PMS5003;50735;52.060;1.248;2022-12-10T07:51:27;31;28;
63305;PMS5003;50735;52.060;1.248;2022-12-10T07:53:54;42;34;
63305;PMS5003;50735;52.060;1.248;2022-12-10T07:56:22;27;25;
63305;PMS5003;50735;52.060;1.248;2022-12-10T07:58:50;38;30;
63305;PMS5003;50735;52.060;1.248;2022-12-10T08:01:19;43;31;
63305;PMS5003;50735;52.060;1.248;2022-12-10T08:03:48;36;31;
63305;PMS5003;50735;52.060;1.248;2022-12-10T08:06:16;33;29;
63305;PMS5003;50735;52.060;1.248;2022-12-10T08:08:44;35;32;
63305;PMS5003;50735;52.060;1.248;2022-12-10T08:11:11;45;35;
63305;PMS5003;50735;52.060;1.248;2022-12-10T08:13:39;41;30;
63305;PMS5003;50735;52.060;1.248;2022-12-10T08:16:08;27;26;
63305;PMS5003;50735;52.060;1.248;2022-12-10T08:18:38;40;36;
63305;PMS5003;50735;52.060;1.248;2022-12-10T08:21:06;36;31;
63305;PMS5003;50735;52.060;1.248;2022-12-10T08:23:35;36;30;
63305;PMS5003;50735;52.060;1.248;2022-12-10T08:26:03;42;32;
63305;PMS5003;50735;52.060;1.248;2022-12-10T08:28:30;32;24;
63305;PMS5003;50735;52.060;1.248;2022-12-10T08:30:57;32;26;
63305;PMS5003;50735;52.060;1.248;2022-12-10T08:33:24;34;28;
63305;PMS5003;50735;52.060;1.248;2022-12-10T08:35:51;30;23;
63305;PMS5003;50735;52.060;1.248;2022-12-10T08:38:18;35;28;
63305;PMS5003;50735;52.060;1.248;2022-12-10T08:40:45;30;28;
63305;PMS5003;50735;52.060;1.248;2022-12-10T08:43:12;29;24;
63305;PMS5003;50735;52.060;1.248;2022-12-10T08:45:39;36;26;
63305;PMS5003;50735;52.060;1.248;2022-12-10T08:48:05;37;31;
63305;PMS5003;50735;52.060;1.248;2022-12-10T08:50:32;38;37;
63305;PMS5003;50735;52.060;1.248;2022-12-10T08:53:00;39;36;
63305;PMS5003;50735;52.060;1.248;2022-12-10T08:55:26;34;25;
63305;PMS5003;50735;52.060;1.248;2022-12-10T08:57:53;37;35;
63305;PMS5003;50735;52.060;1.248;2022-12-10T09:00:20;33;24;
63305;PMS5003;50735;52.060;1.248;2022-12-10T09:02:47;36;27;
63305;PMS5003;50735;52.060;1.248;2022-12-10T09:05:14;40;37;
63305;PMS5003;50735;52.060;1.248;2022-12-10T09:07:40;43;28;
63305;PMS5003;50735;52.060;1.248;2022-12-10T09:10:08;32;25;
63305;PMS5003;50735;52.060;1.248;2022-12-10T09:12:36;40;30;
63305;PMS5003;50735;52.060;1.248;2022-12-10T09:15:03;32;26;
63305;PMS5003;50735;52.060;1.248;2022-12-10T09:17:31;32;26;
63305;PMS5003;50735;52.060;1.248;2022-12-10T09:19:58;42;30;
63305;PMS5003;50735;52.060;1.248;2022-12-10T09:22:25;41;35;
63305;PMS5003;50735;52.060;1.248;2022-12-10T09:24:52;39;35;
63305;PMS5003;50735;52.060;1.248;2022-12-10T09:27:18;43;32;
63305;PMS5003;50735;52.060;1.248;2022-12-10T09:29:45;42;35;
63305;PMS5003;50735;52.060;1.248;2022-12-10T09:32:12;38;33;
63305;PMS5003;50735;52.060;1.248;2022-12-10T09:34:39;48;36;
63305;PMS5003;50735;52.060;1.248;2022-12-10T09:37:06;58;51;
63305;PMS5003;50735;52.060;1.248;2022-12-10T09:39:33;39;31;
63305;PMS5003;50735;52.060;1.248;2022-12-10T09:42:03;46;39;
63305;PMS5003;50735;52.060;1.248;2022-12-10T09:44:46;43;40;
63305;PMS5003;50735;52.060;1.248;2022-12-10T09:47:23;39;33;
63305;PMS5003;50735;52.060;1.248;2022-12-10T09:49:58;45;36;
63305;PMS5003;50735;52.060;1.248;2022-12-10T09:52:36;42;35;
63305;PMS5003;50735;52.060;1.248;2022-12-10T09:55:09;47;35;
63305;PMS5003;50735;52.060;1.248;2022-12-10T09:57:39;47;37;
63305;PMS5003;50735;52.060;1.248;2022-12-10T10:00:17;38;36;
63305;PMS5003;50735;52.060;1.248;2022-12-10T10:02:48;46;33;
63305;PMS5003;50735;52.060;1.248;2022-12-10T10:05:19;51;39;
63305;PMS5003;50735;52.060;1.248;2022-12-10T10:07:49;36;33;
63305;PMS5003;50735;52.060;1.248;2022-12-10T10:10:20;37;33;
63305;PMS5003;50735;52.060;1.248;2022-12-10T10:12:50;34;31;
63305;PMS5003;50735;52.060;1.248;2022-12-10T10:15:22;38;34;
63305;PMS5003;50735;52.060;1.248;2022-12-10T10:17:52;101;78;
63305;PMS5003;50735;52.060;1.248;2022-12-10T10:20:22;39;32;
63305;PMS5003;50735;52.060;1.248;2022-12-10T10:22:49;47;39;
63305;PMS5003;50735;52.060;1.248;2022-12-10T10:25:18;39;31;
63305;PMS5003;50735;52.060;1.248;2022-12-10T10:27:45;45;38;
63305;PMS5003;50735;52.060;1.248;2022-12-10T10:30:14;40;35;
63305;PMS5003;50735;52.060;1.248;2022-12-10T10:32:46;44;41;
63305;PMS5003;50735;52.060;1.248;2022-12-10T10:35:21;50;37;
63305;PMS5003;50735;52.060;1.248;2022-12-10T10:37:50;45;42;
63305;PMS5003;50735;52.060;1.248;2022-12-10T10:40:23;43;37;
63305;PMS5003;50735;52.060;1.248;2022-12-10T10:42:54;49;42;
63305;PMS5003;50735;52.060;1.248;2022-12-10T10:45:39;45;34;
63305;PMS5003;50735;52.060;1.248;2022-12-10T10:48:10;49;40;
63305;PMS5003;50735;52.060;1.248;2022-12-10T10:50:39;43;33;
63305;PMS5003;50735;52.060;1.248;2022-12-10T10:53:25;40;37;
63305;PMS5003;50735;52.060;1.248;2022-12-10T10:55:55;44;35;
63305;PMS5003;50735;52.060;1.248;2022-12-10T10:58:25;45;40;
63305;PMS5003;50735;52.060;1.248;2022-12-10T11:00:53;41;40;
63305;PMS5003;50735;52.060;1.248;2022-12-10T11:03:23;36;35;
63305;PMS5003;50735;52.060;1.248;2022-12-10T11:05:50;33;33;
63305;PMS5003;50735;52.060;1.248;2022-12-10T11:08:18;39;38;
63305;PMS5003;50735;52.060;1.248;2022-12-10T11:10:46;35;28;
63305;PMS5003;50735;52.060;1.248;2022-12-10T11:13:19;41;39;
63305;PMS5003;50735;52.060;1.248;2022-12-10T11:15:54;37;34;
63305;PMS5003;50735;52.060;1.248;2022-12-10T11:18:24;37;30;
63305;PMS5003;50735;52.060;1.248;2022-12-10T11:20:56;40;36;
63305;PMS5003;50735;52.060;1.248;2022-12-10T11:23:27;45;35;
63305;PMS5003;50735;52.060;1.248;2022-12-10T11:25:58;36;35;
63305;PMS5003;50735;52.060;1.248;2022-12-10T11:28:38;39;33;
63305;PMS5003;50735;52.060;1.248;2022-12-10T11:31:17;36;32;
63305;PMS5003;50735;52.060;1.248;2022-12-10T11:33:58;32;30;
63305;PMS5003;50735;52.060;1.248;2022-12-10T11:36:34;38;32;
63305;PMS5003;50735;52.060;1.248;2022-12-10T11:39:07;31;25;
63305;PMS5003;50735;52.060;1.248;2022-12-10T11:41:47;32;30;
63305;PMS5003;50735;52.060;1.248;2022-12-10T11:44:21;37;34;
63305;PMS5003;50735;52.060;1.248;2022-12-10T11:46:57;37;27;
63305;PMS5003;50735;52.060;1.248;2022-12-10T11:49:35;39;33;
63305;PMS5003;50735;52.060;1.248;2022-12-10T11:52:08;35;34;
63305;PMS5003;50735;52.060;1.248;2022-12-10T11:54:50;33;32;
63305;PMS5003;50735;52.060;1.248;2022-12-10T11:57:26;26;21;
63305;PMS5003;50735;52.060;1.248;2022-12-10T12:00:03;38;30;
63305;PMS5003;50735;52.060;1.248;2022-12-10T12:02:46;27;24;
63305;PMS5003;50735;52.060;1.248;2022-12-10T12:06:02;26;26;
63305;PMS5003;50735;52.060;1.248;2022-12-10T12:08:39;29;24;
63305;PMS5003;50735;52.060;1.248;2022-12-10T12:11:16;30;26;
63305;PMS5003;50735;52.060;1.248;2022-12-10T12:13:54;27;24;
63305;PMS5003;50735;52.060;1.248;2022-12-10T12:16:27;29;25;
63305;PMS5003;50735;52.060;1.248;2022-12-10T12:18:59;26;23;
63305;PMS5003;50735;52.060;1.248;2022-12-10T12:21:29;34;33;
63305;PMS5003;50735;52.060;1.248;2022-12-10T12:23:56;29;26;
63305;PMS5003;50735;52.060;1.248;2022-12-10T12:26:27;22;22;
63305;PMS5003;50735;52.060;1.248;2022-12-10T12:28:59;32;28;
63305;PMS5003;50735;52.060;1.248;2022-12-10T12:31:35;21;21;
63305;PMS5003;50735;52.060;1.248;2022-12-10T12:34:06;24;23;
63305;PMS5003;50735;52.060;1.248;2022-12-10T12:36:43;25;24;
63305;PMS5003;50735;52.060;1.248;2022-12-10T12:39:13;23;19;
63305;PMS5003;50735;52.060;1.248;2022-12-10T12:41:51;29;24;
63305;PMS5003;50735;52.060;1.248;2022-12-10T12:44:26;24;24;
63305;PMS5003;50735;52.060;1.248;2022-12-10T12:46:55;29;25;
63305;PMS5003;50735;52.060;1.248;2022-12-10T12:49:26;24;21;
63305;PMS5003;50735;52.060;1.248;2022-12-10T12:51:58;29;24;
63305;PMS5003;50735;52.060;1.248;2022-12-10T12:54:28;25;25;
63305;PMS5003;50735;52.060;1.248;2022-12-10T12:56:57;36;31;
63305;PMS5003;50735;52.060;1.248;2022-12-10T12:59:33;34;29;
63305;PMS5003;50735;52.060;1.248;2022-12-10T13:02:13;34;29;
63305;PMS5003;50735;52.060;1.248;2022-12-10T13:04:47;34;32;
63305;PMS5003;50735;52.060;1.248;2022-12-10T13:07:33;29;22;
63305;PMS5003;50735;52.060;1.248;2022-12-10T13:10:17;28;19;
63305;PMS5003;50735;52.060;1.248;2022-12-10T13:12:49;30;25;
63305;PMS5003;50735;52.060;1.248;2022-12-10T13:15:33;32;27;
63305;PMS5003;50735;52.060;1.248;2022-12-10T13:18:03;27;24;
63305;PMS5003;50735;52.060;1.248;2022-12-10T13:20:47;27;24;
63305;PMS5003;50735;52.060;1.248;2022-12-10T13:23:32;24;24;
63305;PMS5003;50735;52.060;1.248;2022-12-10T13:26:01;22;22;
63305;PMS5003;50735;52.060;1.248;2022-12-10T13:28:29;25;21;
63305;PMS5003;50735;52.060;1.248;2022-12-10T13:31:07;25;22;
63305;PMS5003;50735;52.060;1.248;2022-12-10T13:33:46;26;25;
63305;PMS5003;50735;52.060;1.248;2022-12-10T13:36:19;30;26;
63305;PMS5003;50735;52.060;1.248;2022-12-10T13:38:54;26;25;
63305;PMS5003;50735;52.060;1.248;2022-12-10T13:41:23;26;23;
63305;PMS5003;50735;52.060;1.248;2022-12-10T13:43:52;22;22;
63305;PMS5003;50735;52.060;1.248;2022-12-10T13:46:24;30;27;
63305;PMS5003;50735;52.060;1.248;2022-12-10T13:48:53;20;18;
63305;PMS5003;50735;52.060;1.248;2022-12-10T13:51:24;21;19;
63305;PMS5003;50735;52.060;1.248;2022-12-10T13:54:04;22;20;
63305;PMS5003;50735;52.060;1.248;2022-12-10T13:56:40;17;17;
63305;PMS5003;50735;52.060;1.248;2022-12-10T13:59:17;26;22;
63305;PMS5003;50735;52.060;1.248;2022-12-10T14:01:56;22;19;
63305;PMS5003;50735;52.060;1.248;2022-12-10T14:04:45;21;21;
63305;PMS5003;50735;52.060;1.248;2022-12-10T14:07:27;29;23;
63305;PMS5003;50735;52.060;1.248;2022-12-10T14:09:54;21;18;
63305;PMS5003;50735;52.060;1.248;2022-12-10T14:12:24;29;23;
63305;PMS5003;50735;52.060;1.248;2022-12-10T14:14:55;32;28;
63305;PMS5003;50735;52.060;1.248;2022-12-10T14:17:29;31;24;
63305;PMS5003;50735;52.060;1.248;2022-12-10T14:19:58;29;26;
63305;PMS5003;50735;52.060;1.248;2022-12-10T14:22:28;35;32;
63305;PMS5003;50735;52.060;1.248;2022-12-10T14:25:00;35;29;
63305;PMS5003;50735;52.060;1.248;2022-12-10T14:27:30;39;36;
63305;PMS5003;50735;52.060;1.248;2022-12-10T14:29:59;37;31;
63305;PMS5003;50735;52.060;1.248;2022-12-10T14:32:28;29;29;
63305;PMS5003;50735;52.060;1.248;2022-12-10T14:34:59;34;29;
63305;PMS5003;50735;52.060;1.248;2022-12-10T14:37:28;36;32;
63305;PMS5003;50735;52.060;1.248;2022-12-10T14:39:58;31;30;
63305;PMS5003;50735;52.060;1.248;2022-12-10T14:42:25;34;31;
63305;PMS5003;50735;52.060;1.248;2022-12-10T14:44:54;48;40;
63305;PMS5003;50735;52.060;1.248;2022-12-10T14:47:23;33;29;
63305;PMS5003;50735;52.060;1.248;2022-12-10T14:49:52;41;35;
63305;PMS5003;50735;52.060;1.248;2022-12-10T14:52:21;33;28;
63305;PMS5003;50735;52.060;1.248;2022-12-10T14:54:49;38;29;
63305;PMS5003;50735;52.060;1.248;2022-12-10T14:57:18;33;28;
63305;PMS5003;50735;52.060;1.248;2022-12-10T14:59:49;39;35;
63305;PMS5003;50735;52.060;1.248;2022-12-10T15:02:24;35;33;
63305;PMS5003;50735;52.060;1.248;2022-12-10T15:04:54;34;31;
63305;PMS5003;50735;52.060;1.248;2022-12-10T15:07:23;26;26;
63305;PMS5003;50735;52.060;1.248;2022-12-10T15:09:52;25;25;
63305;PMS5003;50735;52.060;1.248;2022-12-10T15:12:24;31;26;
63305;PMS5003;50735;52.060;1.248;2022-12-10T15:14:55;34;31;
63305;PMS5003;50735;52.060;1.248;2022-12-10T15:17:33;35;28;
63305;PMS5003;50735;52.060;1.248;2022-12-10T15:20:02;43;31;
63305;PMS5003;50735;52.060;1.248;2022-12-10T15:22:35;27;26;
63305;PMS5003;50735;52.060;1.248;2022-12-10T15:25:10;40;35;
63305;PMS5003;50735;52.060;1.248;2022-12-10T15:27:51;45;34;
63305;PMS5003;50735;52.060;1.248;2022-12-10T15:30:22;36;33;
63305;PMS5003;50735;52.060;1.248;2022-12-10T15:32:50;33;32;
63305;PMS5003;50735;52.060;1.248;2022-12-10T15:35:18;38;32;
63305;PMS5003;50735;52.060;1.248;2022-12-10T15:37:46;44;35;
63305;PMS5003;50735;52.060;1.248;2022-12-10T15:40:21;36;33;
63305;PMS5003;50735;52.060;1.248;2022-12-10T15:42:51;36;30;
63305;PMS5003;50735;52.060;1.248;2022-12-10T15:45:24;38;36;
63305;PMS5003;50735;52.060;1.248;2022-12-10T15:47:53;35;27;
63305;PMS5003;50735;52.060;1.248;2022-12-10T15:50:22;36;31;
63305;PMS5003;50735;52.060;1.248;2022-12-10T15:52:49;33;27;
63305;PMS5003;50735;52.060;1.248;2022-12-10T15:55:17;33;33;
63305;PMS5003;50735;52.060;1.248;2022-12-10T15:57:44;49;39;
63305;PMS5003;50735;52.060;1.248;2022-12-10T16:00:14;45;35;
63305;PMS5003;50735;52.060;1.248;2022-12-10T16:02:45;37;34;
63305;PMS5003;50735;52.060;1.248;2022-12-10T16:05:15;48;40;
63305;PMS5003;50735;52.060;1.248;2022-12-10T16:07:45;39;36;
63305;PMS5003;50735;52.060;1.248;2022-12-10T16:10:14;44;38;
63305;PMS5003;50735;52.060;1.248;2022-12-10T16:12:42;41;37;
63305;PMS5003;50735;52.060;1.248;2022-12-10T16:15:14;47;39;
63305;PMS5003;50735;52.060;1.248;2022-12-10T16:17:43;37;32;
63305;PMS5003;50735;52.060;1.248;2022-12-10T16:20:14;45;38;
63305;PMS5003;50735;52.060;1.248;2022-12-10T16:22:48;42;37;
63305;PMS5003;50735;52.060;1.248;2022-12-10T16:25:15;44;37;
63305;PMS5003;50735;52.060;1.248;2022-12-10T16:27:42;37;33;
63305;PMS5003;50735;52.060;1.248;2022-12-10T16:30:11;39;30;
63305;PMS5003;50735;52.060;1.248;2022-12-10T16:32:41;41;33;
63305;PMS5003;50735;52.060;1.248;2022-12-10T16:35:08;41;39;
63305;PMS5003;50735;52.060;1.248;2022-12-10T16:37:36;38;37;